createdAt,value
2018-12-24T00:00:07.523Z,4.03
2018-12-24T00:02:36.988Z,4.53
2018-12-24T00:05:06.463Z,4.97
2018-12-24T00:07:35.869Z,4.57
2018-12-24T00:10:05.746Z,6.63
2018-12-24T00:12:35.504Z,5.37
2018-12-24T00:15:05.398Z,9.00
2018-12-24T00:17:34.872Z,12.73
2018-12-24T00:20:05.426Z,10.93
2018-12-24T00:22:34.904Z,14.07
2018-12-24T00:25:04.366Z,13.07
2018-12-24T00:27:33.778Z,10.77
2018-12-24T00:30:03.233Z,9.50
2018-12-24T00:32:32.642Z,10.10
2018-12-24T00:35:02.537Z,11.20
2018-12-24T00:37:32.005Z,10.33
2018-12-24T00:40:01.395Z,9.03
2018-12-24T00:42:30.831Z,10.53
2018-12-24T00:45:00.254Z,11.07
2018-12-24T00:47:29.682Z,11.07
2018-12-24T00:49:59.082Z,12.60
2018-12-24T00:52:28.758Z,10.47
2018-12-24T00:54:58.163Z,10.83
2018-12-24T00:57:27.635Z,11.53
2018-12-24T00:59:57.016Z,14.33
2018-12-24T01:02:26.580Z,13.67
2018-12-24T01:04:55.972Z,13.47
2018-12-24T01:07:25.376Z,13.20
2018-12-24T01:09:58.036Z,13.47
2018-12-24T01:12:27.578Z,15.23
2018-12-24T01:14:57.244Z,14.00
2018-12-24T01:17:26.666Z,14.07
2018-12-24T01:19:56.056Z,10.20
2018-12-24T01:22:25.539Z,10.07
2018-12-24T01:24:54.959Z,12.17
2018-12-24T01:27:24.355Z,11.43
2018-12-24T01:29:53.772Z,10.53
2018-12-24T01:32:23.264Z,10.37
2018-12-24T01:34:52.676Z,13.73
2018-12-24T01:37:22.072Z,11.70
2018-12-24T01:39:51.497Z,11.57
2018-12-24T01:42:20.889Z,11.57
2018-12-24T01:44:50.299Z,11.83
2018-12-24T01:47:19.696Z,12.83
2018-12-24T01:49:49.120Z,10.60
2018-12-24T01:52:18.509Z,13.03
2018-12-24T01:54:47.936Z,13.40
2018-12-24T01:57:17.334Z,15.07
2018-12-24T01:59:46.755Z,13.60
2018-12-24T02:02:16.172Z,15.77
2018-12-24T02:04:45.605Z,13.60
2018-12-24T02:07:15.016Z,15.80
2018-12-24T02:09:44.451Z,14.77
2018-12-24T02:12:13.846Z,15.53
2018-12-24T02:14:43.272Z,15.83
2018-12-24T02:17:12.689Z,19.10
2018-12-24T02:19:42.122Z,16.23
2018-12-24T02:22:12.940Z,17.33
2018-12-24T02:24:42.620Z,18.33
2018-12-24T02:27:12.025Z,18.97
2018-12-24T02:29:41.418Z,17.53
2018-12-24T02:32:10.854Z,21.70
2018-12-24T02:34:40.258Z,19.83
2018-12-24T02:37:09.679Z,19.83
2018-12-24T02:39:39.086Z,21.10
2018-12-24T02:42:08.498Z,20.17
2018-12-24T02:44:37.970Z,20.83
2018-12-24T02:47:07.663Z,17.97
2018-12-24T02:49:37.413Z,17.77
2018-12-24T02:52:06.851Z,17.17
2018-12-24T02:54:36.256Z,18.07
2018-12-24T02:57:06.109Z,17.40
2018-12-24T02:59:35.493Z,20.00
2018-12-24T03:02:04.925Z,17.43
2018-12-24T03:04:34.314Z,17.60
2018-12-24T03:07:03.814Z,18.60
2018-12-24T03:09:33.242Z,17.93
2018-12-24T03:12:02.666Z,15.93
2018-12-24T03:14:32.086Z,16.70
2018-12-24T03:17:01.514Z,13.83
2018-12-24T03:19:30.937Z,15.30
2018-12-24T03:22:00.339Z,13.20
2018-12-24T03:24:29.763Z,14.87
2018-12-24T03:26:59.154Z,12.73
2018-12-24T03:29:28.568Z,12.07
2018-12-24T03:31:58.037Z,12.70
2018-12-24T03:34:27.440Z,11.60
2018-12-24T03:36:57.041Z,12.53
2018-12-24T03:39:26.550Z,13.17
2018-12-24T03:41:55.980Z,12.83
2018-12-24T03:44:25.376Z,14.37
2018-12-24T03:46:54.802Z,14.43
2018-12-24T03:49:24.239Z,12.77
2018-12-24T03:51:53.654Z,10.97
2018-12-24T03:54:23.062Z,13.87
2018-12-24T03:56:52.497Z,12.03
2018-12-24T03:59:21.918Z,12.77
2018-12-24T04:01:51.327Z,12.30
2018-12-24T04:04:20.756Z,13.80
2018-12-24T04:06:50.325Z,14.30
2018-12-24T04:09:20.384Z,13.77
2018-12-24T04:11:49.875Z,13.77
2018-12-24T04:14:19.286Z,14.73
2018-12-24T04:16:48.704Z,14.00
2018-12-24T04:19:18.101Z,15.23
2018-12-24T04:21:47.546Z,15.40
2018-12-24T04:24:16.928Z,14.37
2018-12-24T04:26:46.614Z,17.83
2018-12-24T04:29:16.135Z,19.37
2018-12-24T04:31:45.724Z,18.37
2018-12-24T04:34:15.136Z,17.63
2018-12-24T04:36:44.665Z,17.27
2018-12-24T04:39:14.087Z,19.43
2018-12-24T04:41:43.487Z,19.50
2018-12-24T04:44:13.003Z,17.63
2018-12-24T04:46:42.472Z,14.67
2018-12-24T04:49:11.880Z,16.17
2018-12-24T04:51:41.347Z,14.47
2018-12-24T04:54:10.773Z,14.00
2018-12-24T04:56:40.166Z,17.27
2018-12-24T04:59:09.575Z,14.70
2018-12-24T05:01:38.981Z,14.90
2018-12-24T05:04:08.480Z,14.20
2018-12-24T05:06:37.913Z,15.00
2018-12-24T05:09:07.812Z,18.53
2018-12-24T05:11:37.240Z,13.33
2018-12-24T05:14:06.666Z,14.70
2018-12-24T05:16:36.053Z,13.27
2018-12-24T05:19:05.542Z,13.37
2018-12-24T05:21:34.936Z,13.10
2018-12-24T05:24:04.341Z,11.63
2018-12-24T05:26:33.905Z,11.23
2018-12-24T05:29:03.293Z,10.83
2018-12-24T05:31:32.716Z,12.20
2018-12-24T05:34:02.126Z,11.37
2018-12-24T05:36:31.538Z,13.37
2018-12-24T05:39:01.015Z,12.67
2018-12-24T05:41:30.420Z,11.13
2018-12-24T05:43:59.884Z,12.53
2018-12-24T05:46:29.313Z,12.20
2018-12-24T05:48:58.734Z,11.90
2018-12-24T05:51:28.152Z,12.93
2018-12-24T05:53:57.540Z,13.33
2018-12-24T05:56:26.982Z,13.27
2018-12-24T05:58:56.414Z,14.80
2018-12-24T06:01:25.826Z,12.70
2018-12-24T06:03:55.239Z,12.67
2018-12-24T06:06:24.640Z,12.87
2018-12-24T06:08:54.435Z,12.17
2018-12-24T06:11:23.833Z,14.37
2018-12-24T06:13:57.925Z,14.80
2018-12-24T06:16:24.374Z,14.57
2018-12-24T06:18:53.770Z,12.73
2018-12-24T06:21:23.205Z,17.00
2018-12-24T06:23:52.641Z,13.40
2018-12-24T06:26:22.212Z,13.53
2018-12-24T06:28:51.642Z,17.43
2018-12-24T06:31:21.054Z,16.80
2018-12-24T06:33:50.484Z,13.00
2018-12-24T06:36:19.878Z,13.77
2018-12-24T06:38:49.306Z,14.63
2018-12-24T06:41:18.708Z,15.13
2018-12-24T06:43:48.146Z,16.10
2018-12-24T06:46:17.575Z,17.90
2018-12-24T06:48:46.996Z,14.27
2018-12-24T06:51:16.389Z,16.50
2018-12-24T06:53:45.816Z,14.77
2018-12-24T06:56:15.245Z,23.53
2018-12-24T06:58:44.673Z,16.53
2018-12-24T07:01:14.106Z,14.97
2018-12-24T07:03:43.600Z,14.87
2018-12-24T07:06:13.321Z,17.00
2018-12-24T07:08:42.863Z,19.40
2018-12-24T07:11:12.237Z,16.33
2018-12-24T07:13:41.661Z,16.87
2018-12-24T07:16:11.085Z,18.20
2018-12-24T07:18:40.479Z,17.90
2018-12-24T07:21:09.948Z,16.43
2018-12-24T07:23:39.349Z,17.17
2018-12-24T07:26:09.089Z,16.50
2018-12-24T07:28:38.949Z,17.63
2018-12-24T07:31:08.370Z,17.90
2018-12-24T07:33:37.782Z,19.43
2018-12-24T07:36:07.194Z,20.57
2018-12-24T07:38:36.873Z,17.60
2018-12-24T07:41:06.295Z,16.23
2018-12-24T07:43:35.711Z,18.20
2018-12-24T07:46:05.147Z,18.60
2018-12-24T07:48:34.544Z,17.47
2018-12-24T07:51:03.974Z,19.77
2018-12-24T07:53:35.240Z,20.07
2018-12-24T07:56:04.559Z,17.97
2018-12-24T07:58:34.006Z,17.67
2018-12-24T08:01:03.689Z,17.30
2018-12-24T08:03:33.098Z,20.20
2018-12-24T08:06:02.628Z,17.63
2018-12-24T08:08:32.057Z,20.87
2018-12-24T08:11:01.457Z,19.33
2018-12-24T08:13:30.873Z,18.70
2018-12-24T08:16:00.270Z,20.97
2018-12-24T08:18:29.692Z,20.33
2018-12-24T08:20:59.269Z,22.70
2018-12-24T08:23:28.771Z,21.00
2018-12-24T08:25:58.166Z,20.53
2018-12-24T08:28:27.594Z,18.53
2018-12-24T08:30:56.987Z,18.30
2018-12-24T08:33:26.415Z,20.67
2018-12-24T08:35:55.819Z,16.47
2018-12-24T08:38:25.253Z,17.23
2018-12-24T08:40:54.681Z,19.23
2018-12-24T08:43:24.119Z,20.60
2018-12-24T08:45:53.538Z,19.27
2018-12-24T08:48:22.936Z,20.07
2018-12-24T08:50:52.520Z,18.27
2018-12-24T08:53:21.972Z,19.53
2018-12-24T08:55:51.384Z,18.63
2018-12-24T08:58:20.810Z,17.27
2018-12-24T09:00:50.222Z,19.70
2018-12-24T09:03:19.635Z,15.33
2018-12-24T09:05:49.034Z,15.33
2018-12-24T09:08:18.453Z,16.83
2018-12-24T09:10:47.876Z,14.67
2018-12-24T09:13:17.455Z,12.70
2018-12-24T09:15:46.877Z,12.77
2018-12-24T09:18:16.287Z,13.93
2018-12-24T09:20:52.664Z,9.40
2018-12-24T09:23:16.831Z,10.93
2018-12-24T09:25:46.250Z,10.67
2018-12-24T09:28:15.699Z,10.43
2018-12-24T09:30:46.927Z,10.50
2018-12-24T09:33:16.339Z,10.80
2018-12-24T09:35:45.749Z,8.80
2018-12-24T09:38:15.136Z,9.80
2018-12-24T09:40:44.556Z,10.63
2018-12-24T09:43:13.939Z,12.13
2018-12-24T09:45:43.413Z,11.73
2018-12-24T09:48:12.886Z,11.43
2018-12-24T09:50:42.495Z,9.93
2018-12-24T09:53:11.907Z,8.37
2018-12-24T09:55:41.322Z,8.47
2018-12-24T09:58:10.726Z,7.73
2018-12-24T10:00:40.233Z,8.47
2018-12-24T10:03:09.910Z,7.83
2018-12-24T10:05:39.388Z,6.43
2018-12-24T10:08:12.488Z,5.83
2018-12-24T10:10:41.884Z,4.90
2018-12-24T10:13:11.288Z,4.23
2018-12-24T10:15:41.125Z,6.23
2018-12-24T10:18:10.546Z,4.67
2018-12-24T10:20:39.939Z,7.43
2018-12-24T10:23:09.351Z,5.27
2018-12-24T10:25:38.733Z,4.87
2018-12-24T10:28:08.141Z,3.47
2018-12-24T10:30:37.561Z,4.30
2018-12-24T10:33:48.274Z,4.07
2018-12-24T10:36:17.583Z,3.60
2018-12-24T10:38:46.858Z,4.57
2018-12-24T10:41:16.386Z,4.27
2018-12-24T10:43:45.686Z,7.93
2018-12-24T10:46:15.004Z,3.50
2018-12-24T10:48:46.510Z,4.17
2018-12-24T10:51:15.336Z,8.60
2018-12-24T10:53:44.584Z,6.37
2018-12-24T10:56:13.895Z,5.80
2018-12-24T10:58:43.186Z,4.27
2018-12-24T11:01:12.486Z,3.37
2018-12-24T11:03:41.754Z,4.53
2018-12-24T11:06:11.069Z,3.40
2018-12-24T11:08:40.339Z,4.57
2018-12-24T11:11:09.630Z,3.40
2018-12-24T11:13:39.702Z,3.90
2018-12-24T11:16:09.194Z,5.30
2018-12-24T11:18:38.541Z,5.07
2018-12-24T11:21:07.851Z,3.80
2018-12-24T11:23:37.232Z,3.77
2018-12-24T11:26:06.484Z,4.50
2018-12-24T11:28:35.792Z,4.03
2018-12-24T11:31:05.101Z,4.70
2018-12-24T11:33:34.413Z,5.80
2018-12-24T11:36:03.699Z,7.03
2018-12-24T11:38:32.994Z,5.23
2018-12-24T11:41:02.285Z,4.00
2018-12-24T11:43:31.595Z,5.10
2018-12-24T11:46:00.879Z,3.70
2018-12-24T11:48:30.196Z,3.00
2018-12-24T11:50:59.482Z,3.50
2018-12-24T11:53:28.795Z,5.50
2018-12-24T11:55:58.077Z,3.80
2018-12-24T11:58:27.393Z,3.43
2018-12-24T12:00:56.746Z,4.03
2018-12-24T12:03:26.061Z,3.83
2018-12-24T12:05:55.393Z,4.47
2018-12-24T12:08:25.160Z,3.37
2018-12-24T12:10:54.443Z,2.60
2018-12-24T12:13:23.821Z,3.57
2018-12-24T12:15:53.113Z,4.07
2018-12-24T12:18:22.415Z,2.90
2018-12-24T12:20:52.681Z,3.20
2018-12-24T12:23:22.339Z,2.93
2018-12-24T12:25:51.995Z,2.20
2018-12-24T12:28:21.268Z,2.13
2018-12-24T12:30:50.579Z,2.20
2018-12-24T12:33:19.861Z,3.43
2018-12-24T12:35:49.183Z,3.03
2018-12-24T12:38:18.473Z,1.73
2018-12-24T12:40:47.779Z,2.37
2018-12-24T12:43:17.065Z,2.00
2018-12-24T12:45:51.138Z,2.33
2018-12-24T12:48:17.342Z,2.27
2018-12-24T12:50:46.674Z,2.07
2018-12-24T12:53:15.956Z,2.10
2018-12-24T12:55:45.253Z,3.10
2018-12-24T12:58:14.542Z,1.93
2018-12-24T13:00:43.858Z,1.70
2018-12-24T13:03:13.157Z,2.03
2018-12-24T13:05:42.623Z,2.80
2018-12-24T13:08:11.996Z,3.13
2018-12-24T13:10:41.295Z,2.77
2018-12-24T13:13:10.574Z,4.43
2018-12-24T13:15:39.890Z,3.93
2018-12-24T13:18:09.185Z,3.30
2018-12-24T13:20:38.463Z,3.80
2018-12-24T13:23:07.870Z,3.33
2018-12-24T13:25:37.204Z,3.90
2018-12-24T13:28:06.535Z,5.00
2018-12-24T13:30:35.804Z,4.07
2018-12-24T13:33:05.162Z,4.27
2018-12-24T13:35:34.455Z,3.47
2018-12-24T13:38:03.776Z,3.13
2018-12-24T13:40:33.146Z,3.33
2018-12-24T13:43:02.517Z,4.60
2018-12-24T13:45:31.942Z,3.30
2018-12-24T13:48:01.259Z,2.77
2018-12-24T13:50:30.546Z,1.80
2018-12-24T13:52:59.859Z,1.67
2018-12-24T13:55:29.177Z,2.27
2018-12-24T13:57:58.500Z,2.80
2018-12-24T14:00:27.779Z,2.10
2018-12-24T14:02:57.064Z,3.13
2018-12-24T14:05:26.352Z,2.47
2018-12-24T14:07:55.656Z,2.13
2018-12-24T14:10:24.934Z,1.93
2018-12-24T14:12:54.232Z,2.30
2018-12-24T14:15:23.520Z,2.30
2018-12-24T14:17:52.809Z,1.80
2018-12-24T14:20:22.227Z,1.97
2018-12-24T14:22:51.505Z,1.83
2018-12-24T14:25:20.814Z,2.57
2018-12-24T14:27:50.094Z,2.20
2018-12-24T14:30:19.397Z,1.90
2018-12-24T14:32:48.787Z,1.93
2018-12-24T14:35:18.071Z,1.60
2018-12-24T14:37:47.384Z,2.73
2018-12-24T14:40:16.682Z,1.97
2018-12-24T14:42:45.956Z,2.37
2018-12-24T14:45:15.273Z,1.83
2018-12-24T14:47:44.964Z,2.10
2018-12-24T14:50:14.587Z,2.03
2018-12-24T14:52:43.850Z,2.00
2018-12-24T14:55:13.134Z,17.10
2018-12-24T14:57:42.443Z,6.20
2018-12-24T15:00:12.119Z,2.63
2018-12-24T15:02:41.395Z,2.30
2018-12-24T15:05:10.695Z,3.10
2018-12-24T15:07:40.040Z,3.97
2018-12-24T15:10:09.645Z,2.53
2018-12-24T15:12:38.954Z,4.00
2018-12-24T15:15:08.248Z,3.57
2018-12-24T15:17:37.529Z,4.87
2018-12-24T15:20:07.821Z,3.53
2018-12-24T15:22:37.128Z,3.23
2018-12-24T15:25:06.398Z,2.80
2018-12-24T15:27:35.813Z,4.03
2018-12-24T15:30:06.253Z,2.60
2018-12-24T15:32:35.547Z,2.53
2018-12-24T15:35:05.126Z,15.47
2018-12-24T15:37:34.449Z,28.57
2018-12-24T15:40:04.196Z,4.17
2018-12-24T15:42:33.514Z,25.13
2018-12-24T15:45:02.811Z,14.23
2018-12-24T15:47:32.172Z,5.13
2018-12-24T15:50:01.445Z,8.53
2018-12-24T15:52:30.762Z,6.40
2018-12-24T15:55:00.024Z,4.30
2018-12-24T15:57:29.328Z,18.10
2018-12-24T15:59:58.637Z,4.43
2018-12-24T16:02:27.917Z,5.77
2018-12-24T16:04:57.220Z,7.47
2018-12-24T16:07:26.545Z,10.47
2018-12-24T16:09:55.864Z,12.70
2018-12-24T16:12:25.187Z,11.30
2018-12-24T16:14:54.500Z,10.43
2018-12-24T16:17:23.782Z,4.97
2018-12-24T16:19:53.086Z,5.70
2018-12-24T16:22:22.373Z,6.30
2018-12-24T16:24:51.659Z,8.37
2018-12-24T16:27:20.935Z,4.37
2018-12-24T16:29:50.257Z,7.70
2018-12-24T16:32:19.614Z,5.00
2018-12-24T16:34:48.906Z,8.03
2018-12-24T16:37:18.186Z,5.60
2018-12-24T16:39:47.860Z,5.93
2018-12-24T16:42:17.085Z,5.63
2018-12-24T16:44:46.514Z,5.60
2018-12-24T16:47:15.821Z,6.40
2018-12-24T16:49:45.104Z,5.40
2018-12-24T16:52:14.679Z,5.90
2018-12-24T16:54:44.134Z,5.50
2018-12-24T16:57:13.435Z,4.30
2018-12-24T16:59:42.734Z,5.73
2018-12-24T17:02:14.888Z,6.47
2018-12-24T17:04:44.160Z,4.80
2018-12-24T17:07:13.453Z,6.43
2018-12-24T17:09:42.768Z,5.40
2018-12-24T17:12:14.804Z,7.40
2018-12-24T17:14:44.091Z,5.20
2018-12-24T17:17:13.387Z,6.87
2018-12-24T17:19:42.675Z,6.30
2018-12-24T17:22:11.986Z,5.53
2018-12-24T17:24:41.295Z,7.63
2018-12-24T17:27:10.593Z,5.03
2018-12-24T17:29:40.242Z,6.43
2018-12-24T17:32:09.558Z,4.30
2018-12-24T17:34:38.834Z,4.77
2018-12-24T17:37:08.132Z,4.27
2018-12-24T17:39:37.463Z,5.03
2018-12-24T17:42:06.739Z,4.87
2018-12-24T17:44:36.039Z,4.90
2018-12-24T17:47:05.356Z,5.37
2018-12-24T17:49:34.658Z,5.13
2018-12-24T17:52:03.972Z,4.93
2018-12-24T17:54:33.287Z,4.73
2018-12-24T17:57:02.565Z,7.30
2018-12-24T17:59:31.867Z,7.07
2018-12-24T18:02:01.523Z,6.43
2018-12-24T18:04:30.830Z,5.90
2018-12-24T18:07:00.108Z,7.70
2018-12-24T18:09:29.429Z,6.00
2018-12-24T18:11:58.699Z,7.00
2018-12-24T18:14:28.026Z,5.57
2018-12-24T18:16:57.309Z,5.43
2018-12-24T18:19:26.627Z,4.90
2018-12-24T18:21:55.975Z,5.80
2018-12-24T18:24:25.282Z,6.07
2018-12-24T18:26:54.579Z,5.70
2018-12-24T18:29:23.898Z,5.75
2018-12-24T18:31:53.206Z,6.30
2018-12-24T18:34:22.505Z,7.53
2018-12-24T18:36:51.787Z,7.00
2018-12-24T18:39:21.098Z,11.45
2018-12-24T18:41:50.400Z,14.93
2018-12-24T18:44:19.714Z,13.30
2018-12-24T18:46:49.027Z,11.45
2018-12-24T18:49:18.337Z,10.28
2018-12-24T18:51:47.667Z,9.23
2018-12-24T18:54:16.961Z,9.20
2018-12-24T18:56:46.629Z,8.87
2018-12-24T18:59:16.109Z,10.25
2018-12-24T19:01:45.408Z,9.08
2018-12-24T19:04:14.728Z,11.28
2018-12-24T19:06:44.171Z,8.73
2018-12-24T19:09:13.448Z,10.30
2018-12-24T19:11:42.774Z,9.85
2018-12-24T19:14:12.078Z,10.72
2018-12-24T19:16:41.407Z,11.25
2018-12-24T19:19:10.696Z,11.30
2018-12-24T19:21:43.941Z,10.78
2018-12-24T19:24:11.014Z,8.63
2018-12-24T19:26:40.329Z,9.23
2018-12-24T19:29:09.628Z,9.25
2018-12-24T19:31:38.948Z,9.98
2018-12-24T19:34:08.242Z,8.88
2018-12-24T19:36:37.552Z,10.15
2018-12-24T19:39:07.683Z,11.05
2018-12-24T19:41:37.000Z,9.95
2018-12-24T19:44:06.317Z,11.15
2018-12-24T19:46:35.633Z,8.58
2018-12-24T19:49:04.990Z,8.10
2018-12-24T19:51:34.293Z,8.33
2018-12-24T19:54:03.825Z,9.83
2018-12-24T19:56:33.122Z,8.83
2018-12-24T19:59:02.692Z,8.83
2018-12-24T20:01:32.061Z,10.18
2018-12-24T20:04:01.389Z,12.13
2018-12-24T20:06:30.782Z,9.95
2018-12-24T20:09:00.103Z,9.93
2018-12-24T20:11:29.416Z,10.68
2018-12-24T20:13:58.765Z,10.00
2018-12-24T20:16:28.071Z,9.90
2018-12-24T20:18:57.678Z,9.38
2018-12-24T20:21:26.971Z,10.43
2018-12-24T20:23:56.300Z,10.70
2018-12-24T20:26:25.594Z,13.53
2018-12-24T20:28:54.924Z,12.53
2018-12-24T20:31:24.231Z,13.38
2018-12-24T20:33:53.565Z,11.55
2018-12-24T20:36:23.052Z,10.40
2018-12-24T20:38:52.337Z,10.05
2018-12-24T20:41:21.664Z,9.98
2018-12-24T20:43:50.967Z,9.18
2018-12-24T20:46:20.284Z,11.70
2018-12-24T20:48:49.565Z,9.45
2018-12-24T20:51:18.896Z,14.33
2018-12-24T20:53:48.239Z,13.35
2018-12-24T20:56:17.573Z,10.82
2018-12-24T20:58:46.864Z,10.82
2018-12-24T21:01:16.176Z,10.58
2018-12-24T21:03:45.510Z,10.03
2018-12-24T21:06:14.827Z,9.45
2018-12-24T21:08:44.123Z,10.40
2018-12-24T21:11:13.450Z,11.48
2018-12-24T21:13:42.750Z,12.50
2018-12-24T21:16:12.279Z,11.75
2018-12-24T21:18:41.762Z,11.15
2018-12-24T21:21:11.551Z,12.13
2018-12-24T21:23:40.876Z,12.07
2018-12-24T21:26:10.686Z,12.03
2018-12-24T21:28:40.015Z,12.10
2018-12-24T21:31:09.378Z,10.85
2018-12-24T21:33:38.679Z,11.20
2018-12-24T21:36:08.077Z,11.78
2018-12-24T21:38:37.303Z,10.53
2018-12-24T21:41:06.597Z,10.48
2018-12-24T21:43:35.912Z,12.58
2018-12-24T21:46:05.224Z,12.35
2018-12-24T21:48:34.537Z,12.15
2018-12-24T21:51:03.846Z,12.45
2018-12-24T21:53:33.185Z,14.85
2018-12-24T21:56:02.489Z,12.47
2018-12-24T21:58:31.825Z,11.15
2018-12-24T22:01:01.152Z,11.43
2018-12-24T22:03:30.478Z,11.22
2018-12-24T22:05:59.805Z,12.35
2018-12-24T22:08:29.117Z,12.23
2018-12-24T22:10:58.441Z,13.10
2018-12-24T22:13:28.092Z,12.70
2018-12-24T22:15:57.430Z,11.83
2018-12-24T22:18:32.234Z,12.28
2018-12-24T22:20:58.267Z,15.98
2018-12-24T22:23:27.572Z,12.23
2018-12-24T22:25:56.896Z,14.60
2018-12-24T22:28:26.195Z,14.90
2018-12-24T22:30:55.520Z,12.75
2018-12-24T22:33:26.928Z,11.28
2018-12-24T22:35:55.873Z,14.85
2018-12-24T22:38:25.318Z,11.03
2018-12-24T22:40:54.647Z,10.63
2018-12-24T22:43:23.958Z,11.48
2018-12-24T22:45:53.300Z,11.68
2018-12-24T22:48:22.599Z,11.55
2018-12-24T22:50:51.927Z,12.90
2018-12-24T22:53:21.245Z,12.90
2018-12-24T22:55:50.556Z,13.45
2018-12-24T22:58:19.892Z,14.78
2018-12-24T23:00:50.028Z,14.13
2018-12-24T23:03:19.355Z,13.25
2018-12-24T23:05:48.666Z,14.45
2018-12-24T23:08:18.018Z,15.40
2018-12-24T23:10:47.348Z,14.47
2018-12-24T23:13:16.690Z,13.43
2018-12-24T23:15:46.019Z,14.30
2018-12-24T23:18:15.322Z,14.90
2018-12-24T23:20:44.898Z,12.78
2018-12-24T23:23:14.228Z,13.05
2018-12-24T23:25:43.541Z,11.83
2018-12-24T23:28:12.944Z,14.90
2018-12-24T23:30:42.251Z,13.13
2018-12-24T23:33:11.961Z,12.68
2018-12-24T23:35:41.279Z,13.00
2018-12-24T23:38:10.820Z,12.47
2018-12-24T23:40:40.128Z,12.37
2018-12-24T23:43:09.713Z,13.10
2018-12-24T23:45:39.056Z,13.40
2018-12-24T23:48:08.403Z,11.75
2018-12-24T23:50:37.757Z,12.98
2018-12-24T23:53:07.098Z,12.30
2018-12-24T23:55:36.434Z,15.20
2018-12-24T23:58:06.009Z,13.25
